createdAt,value
2022-09-18T00:03:58.222Z,86.71
2022-09-18T00:13:30.566Z,86.53
2022-09-18T00:23:04.701Z,86.50
2022-09-18T00:32:39.010Z,86.85
2022-09-18T00:42:14.634Z,86.67
2022-09-18T00:51:48.481Z,86.05
2022-09-18T01:01:22.648Z,86.03
2022-09-18T01:10:56.467Z,85.88
2022-09-18T01:20:30.477Z,85.70
2022-09-18T01:30:03.262Z,85.70
2022-09-18T01:39:37.838Z,85.99
2022-09-18T01:49:11.927Z,86.14
2022-09-18T01:58:46.370Z,86.06
2022-09-18T02:08:21.853Z,85.78
2022-09-18T02:17:55.640Z,85.81
2022-09-18T02:18:59.648Z,85.26
2022-09-18T02:28:32.806Z,84.65
2022-09-18T02:38:05.472Z,84.91
2022-09-18T02:47:41.230Z,84.97
2022-09-18T02:57:14.067Z,84.25
2022-09-18T03:06:51.100Z,84.37
2022-09-18T03:16:23.105Z,84.08
2022-09-18T03:25:57.231Z,84.53
2022-09-18T03:35:33.606Z,84.07
2022-09-18T03:45:06.165Z,83.52
2022-09-18T03:54:40.294Z,84.11
2022-09-18T04:04:15.323Z,84.61
2022-09-18T04:13:48.539Z,85.51
2022-09-18T04:23:24.048Z,86.19
2022-09-18T04:32:58.086Z,85.68
2022-09-18T04:42:30.354Z,85.19
2022-09-18T04:52:04.796Z,85.66
2022-09-18T05:01:38.841Z,85.25
2022-09-18T05:11:13.055Z,85.60
2022-09-18T05:20:47.358Z,85.89
2022-09-18T05:30:21.616Z,86.15
2022-09-18T05:39:57.562Z,86.75
2022-09-18T05:49:29.716Z,87.01
2022-09-18T05:59:03.505Z,87.56
2022-09-18T06:08:38.618Z,87.86
2022-09-18T06:18:13.324Z,88.02
2022-09-18T06:27:45.979Z,87.90
2022-09-18T06:37:20.678Z,88.20
2022-09-18T06:46:55.514Z,88.16
2022-09-18T06:56:29.747Z,88.38
2022-09-18T07:06:07.012Z,88.19
2022-09-18T07:15:39.118Z,86.98
2022-09-18T07:25:13.727Z,85.88
2022-09-18T07:34:48.127Z,84.88
2022-09-18T07:35:52.272Z,84.69
2022-09-18T07:45:24.225Z,83.03
2022-09-18T07:46:26.819Z,83.25
2022-09-18T07:47:29.189Z,83.09
2022-09-18T07:48:31.688Z,82.78
2022-09-18T07:49:34.199Z,82.67
2022-09-18T07:50:38.310Z,82.37
2022-09-18T08:00:09.812Z,82.74
2022-09-18T08:01:12.288Z,81.63
2022-09-18T08:02:14.880Z,81.88
2022-09-18T08:03:17.348Z,82.09
2022-09-18T08:04:19.698Z,81.65
2022-09-18T08:13:53.330Z,80.63
2022-09-18T08:14:57.408Z,80.62
2022-09-18T08:15:59.815Z,80.51
2022-09-18T08:17:03.863Z,80.27
2022-09-18T08:18:07.792Z,79.60
2022-09-18T08:19:10.203Z,79.94
2022-09-18T08:20:12.637Z,79.69
2022-09-18T08:21:16.627Z,79.35
2022-09-18T08:22:18.957Z,79.10
2022-09-18T08:23:21.440Z,78.65
2022-09-18T08:24:23.905Z,78.68
2022-09-18T08:25:26.254Z,78.03
2022-09-18T08:26:30.306Z,77.92
2022-09-18T08:27:32.680Z,77.73
2022-09-18T08:28:35.111Z,77.57
2022-09-18T08:29:37.670Z,77.92
2022-09-18T08:30:41.703Z,78.17
2022-09-18T08:31:45.623Z,77.63
2022-09-18T08:32:49.519Z,78.14
2022-09-18T08:33:53.374Z,78.49
2022-09-18T08:34:55.769Z,78.28
2022-09-18T08:35:59.837Z,77.70
2022-09-18T08:37:02.109Z,77.54
2022-09-18T08:38:04.551Z,77.68
2022-09-18T08:39:07.067Z,77.14
2022-09-18T08:40:09.542Z,77.80
2022-09-18T08:41:12.961Z,77.24
2022-09-18T08:42:15.239Z,77.06
2022-09-18T08:43:17.743Z,77.41
2022-09-18T08:44:21.780Z,76.36
2022-09-18T08:45:25.767Z,76.27
2022-09-18T08:46:28.098Z,76.51
2022-09-18T08:47:30.553Z,76.98
2022-09-18T08:48:33.001Z,75.98
2022-09-18T08:49:35.458Z,76.53
2022-09-18T08:50:39.493Z,75.72
2022-09-18T08:51:41.783Z,75.45
2022-09-18T08:52:44.160Z,75.24
2022-09-18T08:53:48.183Z,74.90
2022-09-18T08:54:50.671Z,74.89
2022-09-18T08:55:54.630Z,74.62
2022-09-18T08:56:57.165Z,75.05
2022-09-18T08:57:59.624Z,76.12
2022-09-18T08:59:03.667Z,75.98
2022-09-18T09:00:06.092Z,75.37
2022-09-18T09:01:08.735Z,75.14
2022-09-18T09:02:11.320Z,75.27
2022-09-18T09:03:15.224Z,75.18
2022-09-18T09:04:17.551Z,74.06
2022-09-18T09:13:50.048Z,74.82
2022-09-18T09:14:57.339Z,75.02
2022-09-18T09:15:56.728Z,74.65
2022-09-18T09:17:00.664Z,73.40
2022-09-18T09:18:03.010Z,73.07
2022-09-18T09:19:05.486Z,73.35
2022-09-18T09:20:08.081Z,73.44
2022-09-18T09:21:11.829Z,73.16
2022-09-18T09:22:13.022Z,72.32
2022-09-18T09:23:15.435Z,71.83
2022-09-18T09:24:19.476Z,71.43
2022-09-18T09:25:23.429Z,72.35
2022-09-18T09:26:25.765Z,72.41
2022-09-18T09:27:29.881Z,73.13
2022-09-18T09:28:32.202Z,72.15
2022-09-18T09:29:34.628Z,71.49
2022-09-18T09:30:38.690Z,71.22
2022-09-18T09:31:42.732Z,70.83
2022-09-18T09:32:44.959Z,71.28
2022-09-18T09:33:47.410Z,71.06
2022-09-18T09:34:49.830Z,71.67
2022-09-18T09:35:53.962Z,70.71
2022-09-18T09:36:56.328Z,70.76
2022-09-18T09:37:58.719Z,71.44
2022-09-18T09:39:01.325Z,70.93
2022-09-18T09:40:05.350Z,71.72
2022-09-18T09:41:09.195Z,71.99
2022-09-18T09:42:13.134Z,72.50
2022-09-18T09:43:15.486Z,72.11
2022-09-18T09:44:17.981Z,70.74
2022-09-18T09:45:20.485Z,70.57
2022-09-18T09:46:24.492Z,70.66
2022-09-18T09:47:26.812Z,69.05
2022-09-18T09:48:29.261Z,70.80
2022-09-18T09:49:31.687Z,70.76
2022-09-18T09:50:35.959Z,70.84
2022-09-18T09:51:38.335Z,69.80
2022-09-18T09:52:40.718Z,69.67
2022-09-18T09:53:44.772Z,69.65
2022-09-18T09:54:49.745Z,69.39
2022-09-18T09:55:51.961Z,71.24
2022-09-18T09:56:56.043Z,69.18
2022-09-18T09:57:58.420Z,69.93
2022-09-18T09:59:02.973Z,69.75
2022-09-18T10:00:03.359Z,69.25
2022-09-18T10:01:05.851Z,70.00
2022-09-18T10:02:08.339Z,70.18
2022-09-18T10:03:12.364Z,69.29
2022-09-18T10:04:14.659Z,68.53
2022-09-18T10:05:17.145Z,68.69
2022-09-18T10:06:19.604Z,69.14
2022-09-18T10:07:23.658Z,67.96
2022-09-18T10:08:25.942Z,68.90
2022-09-18T10:09:28.424Z,68.60
2022-09-18T10:10:30.860Z,69.03
2022-09-18T10:11:34.258Z,69.28
2022-09-18T10:12:36.683Z,68.16
2022-09-18T10:13:39.144Z,68.40
2022-09-18T10:14:43.172Z,67.79
2022-09-18T10:15:45.547Z,67.66
2022-09-18T10:16:49.007Z,67.12
2022-09-18T10:17:52.988Z,68.54
2022-09-18T10:18:55.315Z,68.40
2022-09-18T10:19:57.805Z,68.11
2022-09-18T10:21:00.245Z,69.33
2022-09-18T10:22:02.771Z,69.50
2022-09-18T10:23:05.222Z,70.06
2022-09-18T10:24:07.663Z,69.28
2022-09-18T10:25:10.149Z,69.34
2022-09-18T10:26:12.535Z,68.81
2022-09-18T10:27:15.047Z,68.59
2022-09-18T10:28:17.570Z,69.14
2022-09-18T10:29:20.037Z,68.72
2022-09-18T10:30:26.125Z,69.25
2022-09-18T10:31:28.382Z,70.91
2022-09-18T10:32:32.312Z,69.31
2022-09-18T10:33:34.615Z,68.94
2022-09-18T10:34:37.147Z,68.87
2022-09-18T10:35:41.165Z,67.42
2022-09-18T10:36:43.452Z,67.25
2022-09-18T10:37:45.923Z,68.00
2022-09-18T10:38:50.028Z,68.08
2022-09-18T10:39:52.593Z,67.65
2022-09-18T10:40:54.868Z,68.27
2022-09-18T10:41:57.379Z,67.83
2022-09-18T10:42:59.797Z,68.26
2022-09-18T10:44:03.942Z,68.80
2022-09-18T10:45:06.299Z,68.10
2022-09-18T10:46:10.358Z,66.87
2022-09-18T10:47:12.711Z,67.58
2022-09-18T10:48:16.753Z,68.89
2022-09-18T10:49:19.067Z,66.86
2022-09-18T10:50:23.135Z,66.90
2022-09-18T10:51:25.497Z,67.46
2022-09-18T10:52:27.962Z,67.26
2022-09-18T10:53:30.343Z,69.23
2022-09-18T10:54:34.404Z,67.98
2022-09-18T10:55:36.723Z,68.09
2022-09-18T10:56:40.824Z,68.43
2022-09-18T10:57:44.668Z,69.14
2022-09-18T10:58:46.985Z,67.30
2022-09-18T10:59:49.430Z,67.43
2022-09-18T11:00:51.963Z,67.99
2022-09-18T11:01:54.500Z,67.64
2022-09-18T11:02:56.855Z,68.69
2022-09-18T11:04:00.991Z,68.45
2022-09-18T11:05:03.359Z,66.70
2022-09-18T11:06:07.355Z,66.31
2022-09-18T11:07:09.693Z,65.86
2022-09-18T11:08:13.713Z,65.18
2022-09-18T11:09:17.606Z,65.55
2022-09-18T11:10:19.903Z,65.44
2022-09-18T11:11:22.381Z,66.46
2022-09-18T11:12:24.878Z,65.77
2022-09-18T11:13:28.903Z,66.66
2022-09-18T11:14:31.293Z,66.53
2022-09-18T11:15:36.339Z,66.75
2022-09-18T11:16:38.620Z,66.98
2022-09-18T11:17:42.011Z,66.32
2022-09-18T11:18:45.921Z,67.17
2022-09-18T11:19:48.276Z,66.72
2022-09-18T11:20:53.431Z,65.99
2022-09-18T11:21:55.744Z,66.53
2022-09-18T11:22:59.863Z,66.47
2022-09-18T11:24:03.877Z,66.51
2022-09-18T11:25:06.215Z,67.21
2022-09-18T11:26:10.128Z,65.79
2022-09-18T11:27:12.450Z,65.88
2022-09-18T11:28:14.921Z,67.09
2022-09-18T11:29:17.401Z,65.84
2022-09-18T11:30:21.390Z,66.29
2022-09-18T11:31:24.806Z,67.26
2022-09-18T11:32:27.230Z,66.74
2022-09-18T11:33:29.611Z,66.29
2022-09-18T11:34:33.670Z,67.08
2022-09-18T11:35:36.092Z,66.95
2022-09-18T11:36:38.526Z,67.85
2022-09-18T11:37:41.015Z,67.11
2022-09-18T11:38:45.025Z,67.88
2022-09-18T11:39:47.342Z,67.38
2022-09-18T11:40:49.794Z,66.85
2022-09-18T11:41:53.890Z,66.70
2022-09-18T11:42:56.209Z,65.92
2022-09-18T11:44:00.212Z,65.99
2022-09-18T11:45:02.530Z,66.61
2022-09-18T11:46:04.951Z,67.80
2022-09-18T11:47:07.495Z,67.54
2022-09-18T11:48:09.933Z,66.64
2022-09-18T11:49:12.362Z,67.53
2022-09-18T11:50:14.753Z,66.87
2022-09-18T11:51:17.369Z,67.74
2022-09-18T11:52:21.426Z,66.49
2022-09-18T11:53:25.411Z,66.33
2022-09-18T11:54:27.905Z,67.19
2022-09-18T11:55:32.010Z,68.35
2022-09-18T11:56:34.267Z,66.83
2022-09-18T11:57:37.057Z,66.95
2022-09-18T11:58:39.695Z,65.53
2022-09-18T11:59:43.878Z,65.76
2022-09-18T12:00:46.218Z,66.95
2022-09-18T12:01:48.722Z,65.28
2022-09-18T12:02:51.272Z,65.60
2022-09-18T12:03:53.666Z,64.84
2022-09-18T12:04:56.065Z,66.15
2022-09-18T12:06:00.153Z,65.27
2022-09-18T12:07:02.511Z,65.64
2022-09-18T12:08:03.642Z,64.87
2022-09-18T12:09:06.115Z,64.12
2022-09-18T12:10:08.502Z,65.04
2022-09-18T12:19:41.253Z,66.96
2022-09-18T12:20:43.687Z,65.98
2022-09-18T12:21:46.214Z,64.21
2022-09-18T12:22:48.688Z,64.21
2022-09-18T12:23:51.197Z,62.90
2022-09-18T12:24:53.937Z,63.40
2022-09-18T12:25:56.399Z,63.40
2022-09-18T12:26:58.893Z,63.50
2022-09-18T12:28:01.477Z,63.04
2022-09-18T12:29:03.914Z,63.80
2022-09-18T12:30:06.381Z,64.86
2022-09-18T12:31:08.861Z,62.80
2022-09-18T12:32:11.226Z,62.75
2022-09-18T12:33:13.689Z,62.53
2022-09-18T12:34:16.148Z,62.71
2022-09-18T12:35:20.235Z,62.14
2022-09-18T12:36:22.573Z,61.65
2022-09-18T12:37:25.089Z,62.17
2022-09-18T12:38:29.112Z,62.98
2022-09-18T12:39:33.793Z,62.61
2022-09-18T12:40:36.135Z,63.04
2022-09-18T12:41:38.469Z,62.75
2022-09-18T12:42:42.524Z,63.37
2022-09-18T12:43:44.868Z,62.91
2022-09-18T12:44:47.307Z,62.76
2022-09-18T12:45:49.766Z,62.47
2022-09-18T12:46:57.736Z,62.06
2022-09-18T12:47:58.951Z,62.60
2022-09-18T12:49:01.271Z,62.93
2022-09-18T12:50:05.288Z,62.83
2022-09-18T12:51:07.594Z,62.99
2022-09-18T12:52:10.541Z,62.55
2022-09-18T12:53:14.618Z,62.94
2022-09-18T12:54:20.506Z,63.50
2022-09-18T12:55:22.725Z,64.61
2022-09-18T12:56:25.213Z,63.64
2022-09-18T12:57:27.675Z,63.88
2022-09-18T12:58:31.728Z,63.68
2022-09-18T12:59:34.049Z,64.65
2022-09-18T13:00:36.546Z,63.68
2022-09-18T13:01:38.997Z,63.56
2022-09-18T13:02:41.455Z,64.40
2022-09-18T13:03:43.868Z,63.81
2022-09-18T13:04:47.979Z,62.99
2022-09-18T13:05:51.936Z,63.76
2022-09-18T13:06:54.200Z,63.55
2022-09-18T13:07:56.642Z,64.45
2022-09-18T13:09:00.702Z,63.83
2022-09-18T13:10:03.056Z,65.10
2022-09-18T13:11:05.467Z,64.12
2022-09-18T13:12:07.927Z,64.15
2022-09-18T13:13:10.368Z,64.68
2022-09-18T13:14:14.413Z,64.28
2022-09-18T13:15:16.795Z,64.70
2022-09-18T13:16:21.646Z,64.46
2022-09-18T13:17:25.641Z,64.37
2022-09-18T13:18:29.576Z,65.36
2022-09-18T13:19:33.472Z,64.87
2022-09-18T13:20:35.760Z,65.05
2022-09-18T13:21:38.201Z,65.24
2022-09-18T13:22:40.707Z,65.09
2022-09-18T13:23:43.180Z,64.92
2022-09-18T13:24:45.620Z,64.73
2022-09-18T13:25:48.051Z,64.48
2022-09-18T13:26:50.542Z,64.36
2022-09-18T13:27:52.970Z,64.30
2022-09-18T13:28:55.402Z,63.36
2022-09-18T13:29:57.868Z,63.04
2022-09-18T13:31:00.340Z,62.83
2022-09-18T13:32:04.428Z,63.23
2022-09-18T13:33:06.756Z,63.69
2022-09-18T13:34:09.163Z,62.99
2022-09-18T13:35:13.291Z,64.02
2022-09-18T13:36:17.256Z,62.78
2022-09-18T13:37:19.594Z,63.20
2022-09-18T13:38:22.047Z,63.41
2022-09-18T13:39:24.486Z,62.67
2022-09-18T13:40:27.017Z,63.72
2022-09-18T13:41:31.040Z,63.33
2022-09-18T13:42:33.393Z,63.21
2022-09-18T13:43:37.416Z,63.17
2022-09-18T13:44:41.367Z,63.10
2022-09-18T13:45:43.660Z,64.77
2022-09-18T13:46:46.164Z,62.69
2022-09-18T13:47:48.615Z,62.38
2022-09-18T13:48:51.056Z,63.38
2022-09-18T13:49:53.445Z,62.73
2022-09-18T13:50:55.900Z,62.67
2022-09-18T13:52:00.095Z,63.38
2022-09-18T13:53:02.505Z,63.40
2022-09-18T14:02:34.707Z,62.36
2022-09-18T14:03:37.207Z,63.87
2022-09-18T14:04:39.585Z,63.90
2022-09-18T14:05:43.686Z,61.66
2022-09-18T14:06:47.630Z,62.08
2022-09-18T14:07:49.958Z,62.78
2022-09-18T14:08:52.389Z,61.27
2022-09-18T14:09:57.135Z,61.64
2022-09-18T14:11:14.414Z,60.39
2022-09-18T14:12:01.154Z,60.89
2022-09-18T14:13:03.676Z,62.16
2022-09-18T14:14:06.120Z,61.28
2022-09-18T14:15:10.154Z,60.16
2022-09-18T14:16:15.099Z,61.11
2022-09-18T14:17:17.328Z,61.39
2022-09-18T14:18:21.321Z,61.73
2022-09-18T14:19:23.651Z,62.46
2022-09-18T14:20:26.177Z,61.50
2022-09-18T14:21:30.178Z,61.41
2022-09-18T14:22:32.454Z,61.31
2022-09-18T14:23:36.537Z,62.02
2022-09-18T14:24:38.785Z,61.18
2022-09-18T14:25:41.239Z,62.41
2022-09-18T14:26:43.756Z,60.72
2022-09-18T14:27:47.732Z,62.66
2022-09-18T14:28:50.114Z,60.43
2022-09-18T14:29:52.560Z,61.36
2022-09-18T14:30:56.718Z,61.21
2022-09-18T14:31:59.354Z,61.20
2022-09-18T14:33:01.858Z,60.43
2022-09-18T14:34:04.502Z,60.32
2022-09-18T14:35:06.963Z,60.81
2022-09-18T14:36:12.883Z,60.95
2022-09-18T14:37:11.905Z,60.83
2022-09-18T14:38:15.883Z,62.01
2022-09-18T14:39:18.230Z,61.96
2022-09-18T14:40:20.691Z,61.19
2022-09-18T14:41:23.106Z,62.40
2022-09-18T14:42:27.072Z,61.49
2022-09-18T14:43:27.958Z,62.24
2022-09-18T14:44:30.486Z,62.11
2022-09-18T14:45:32.873Z,61.95
2022-09-18T14:46:35.325Z,61.45
2022-09-18T14:47:37.775Z,61.36
2022-09-18T14:48:41.851Z,61.48
2022-09-18T14:49:45.798Z,61.18
2022-09-18T14:50:48.073Z,61.31
2022-09-18T14:52:03.419Z,62.06
2022-09-18T14:52:54.417Z,61.13
2022-09-18T14:53:58.506Z,61.06
2022-09-18T14:55:00.837Z,61.50
2022-09-18T14:56:03.188Z,60.77
2022-09-18T14:57:05.665Z,61.28
2022-09-18T14:58:08.139Z,60.85
2022-09-18T14:59:10.520Z,60.81
2022-09-18T15:00:12.969Z,61.02
2022-09-18T15:01:15.459Z,61.29
2022-09-18T15:02:17.914Z,60.65
2022-09-18T15:03:20.396Z,61.08
2022-09-18T15:04:22.898Z,61.51
2022-09-18T15:05:25.340Z,61.49
2022-09-18T15:06:27.721Z,62.38
2022-09-18T15:07:30.199Z,61.93
2022-09-18T15:08:34.324Z,62.85
2022-09-18T15:09:39.232Z,64.24
2022-09-18T15:10:41.431Z,64.04
2022-09-18T15:12:01.165Z,62.96
2022-09-18T15:12:46.223Z,62.80
2022-09-18T15:13:48.640Z,62.89
2022-09-18T15:14:52.739Z,62.71
2022-09-18T15:15:55.072Z,63.93
2022-09-18T15:16:57.510Z,63.46
2022-09-18T15:17:59.975Z,64.46
2022-09-18T15:19:02.398Z,63.66
2022-09-18T15:20:04.927Z,63.46
2022-09-18T15:21:07.366Z,63.29
2022-09-18T15:22:09.795Z,64.36
2022-09-18T15:23:12.250Z,63.22
2022-09-18T15:24:14.720Z,64.63
2022-09-18T15:25:18.813Z,63.22
2022-09-18T15:26:21.087Z,64.00
2022-09-18T15:27:23.503Z,64.70
2022-09-18T15:28:25.988Z,65.04
2022-09-18T15:29:30.097Z,64.49
2022-09-18T15:30:32.354Z,63.51
2022-09-18T15:31:34.831Z,63.12
2022-09-18T15:32:38.526Z,62.85
2022-09-18T15:33:41.310Z,63.90
2022-09-18T15:34:45.150Z,63.50
2022-09-18T15:35:48.547Z,63.23
2022-09-18T15:36:50.981Z,63.30
2022-09-18T15:37:53.401Z,61.89
2022-09-18T15:38:57.525Z,62.32
2022-09-18T15:40:00.199Z,61.63
2022-09-18T15:41:04.154Z,61.64
2022-09-18T15:42:06.448Z,60.76
2022-09-18T15:43:08.890Z,61.04
2022-09-18T15:44:12.960Z,61.46
2022-09-18T15:45:16.856Z,61.33
2022-09-18T15:46:19.269Z,61.21
2022-09-18T15:47:21.659Z,61.76
2022-09-18T15:48:24.143Z,61.21
2022-09-18T15:49:26.573Z,61.16
2022-09-18T15:50:29.047Z,61.37
2022-09-18T15:51:31.452Z,60.84
2022-09-18T15:52:35.531Z,62.99
2022-09-18T15:53:39.441Z,62.60
2022-09-18T15:54:41.741Z,61.64
2022-09-18T15:55:44.214Z,62.50
2022-09-18T15:56:46.578Z,61.87
2022-09-18T15:57:49.081Z,62.90
2022-09-18T15:58:53.122Z,63.28
2022-09-18T15:59:57.024Z,62.34
2022-09-18T16:01:00.990Z,62.29
2022-09-18T16:02:03.375Z,62.85
2022-09-18T16:03:05.692Z,62.15
2022-09-18T16:04:09.769Z,62.70
2022-09-18T16:05:13.599Z,63.63
2022-09-18T16:06:16.014Z,61.63
2022-09-18T16:07:20.003Z,63.16
2022-09-18T16:08:22.370Z,62.94
2022-09-18T16:09:24.782Z,63.17
2022-09-18T16:10:28.821Z,63.13
2022-09-18T16:11:31.053Z,64.08
2022-09-18T16:12:33.530Z,64.19
2022-09-18T16:13:37.534Z,63.28
2022-09-18T16:14:41.482Z,62.85
2022-09-18T16:15:45.354Z,63.09
2022-09-18T16:16:49.232Z,63.69
2022-09-18T16:17:53.179Z,63.72
2022-09-18T16:18:57.086Z,64.83
2022-09-18T16:19:59.371Z,64.53
2022-09-18T16:21:01.869Z,64.69
2022-09-18T16:22:04.278Z,65.24
2022-09-18T16:23:06.668Z,64.64
2022-09-18T16:24:11.770Z,64.83
2022-09-18T16:25:13.974Z,64.92
2022-09-18T16:26:18.014Z,65.43
2022-09-18T16:27:21.974Z,65.15
2022-09-18T16:28:25.833Z,65.43
2022-09-18T16:29:28.163Z,65.66
2022-09-18T16:30:32.214Z,66.14
2022-09-18T16:31:36.177Z,66.83
2022-09-18T16:32:40.008Z,65.49
2022-09-18T16:33:44.840Z,65.82
2022-09-18T16:34:45.969Z,65.77
2022-09-18T16:35:49.861Z,65.82
2022-09-18T16:36:52.231Z,66.45
2022-09-18T16:46:24.168Z,69.12
2022-09-18T16:47:26.610Z,69.34
2022-09-18T16:48:30.658Z,69.52
2022-09-18T16:49:34.540Z,68.67
2022-09-18T16:59:05.872Z,70.83
2022-09-18T17:00:09.976Z,71.17
2022-09-18T17:09:43.159Z,73.21
2022-09-18T17:10:45.537Z,72.34
2022-09-18T17:20:20.035Z,75.99
2022-09-18T17:29:52.295Z,77.83
2022-09-18T17:30:54.850Z,78.36
2022-09-18T17:40:27.533Z,80.53
2022-09-18T17:50:03.555Z,80.63
2022-09-18T17:59:36.076Z,81.31
2022-09-18T18:09:12.060Z,82.63
2022-09-18T18:18:45.843Z,83.94
2022-09-18T18:28:18.171Z,84.18
2022-09-18T18:37:51.971Z,84.81
2022-09-18T18:47:27.910Z,85.03
2022-09-18T18:57:01.688Z,86.31
2022-09-18T19:06:36.715Z,88.25
2022-09-18T19:16:07.901Z,89.63
2022-09-18T19:25:41.847Z,89.93
2022-09-18T19:35:15.818Z,91.18
2022-09-18T19:44:50.683Z,90.85
2022-09-18T19:54:25.026Z,89.93
2022-09-18T20:03:58.435Z,89.34
2022-09-18T20:13:30.220Z,90.89
2022-09-18T20:23:05.808Z,91.51
2022-09-18T20:32:39.495Z,92.66
2022-09-18T20:42:11.863Z,91.64
2022-09-18T20:51:47.628Z,91.83
2022-09-18T21:01:21.298Z,90.05
2022-09-18T21:10:53.350Z,89.77
2022-09-18T21:20:27.223Z,88.79
2022-09-18T21:30:01.319Z,89.15
2022-09-18T21:39:36.670Z,88.48
2022-09-18T21:49:08.754Z,88.82
2022-09-18T21:58:43.787Z,89.96
2022-09-18T22:08:15.930Z,90.48
2022-09-18T22:17:49.906Z,90.40
2022-09-18T22:27:23.871Z,90.37
2022-09-18T22:36:57.949Z,91.03
2022-09-18T22:46:33.262Z,92.19
2022-09-18T22:56:06.788Z,93.21
2022-09-18T23:05:40.952Z,92.09
2022-09-18T23:15:13.350Z,92.07
2022-09-18T23:24:47.148Z,92.85
2022-09-18T23:34:22.057Z,92.76
2022-09-18T23:43:54.710Z,92.40
2022-09-18T23:53:30.700Z,93.21
